createdAt,value
2019-02-18T00:02:31.477Z,102277.20
2019-02-18T00:05:03.489Z,102283.84
2019-02-18T00:07:35.414Z,102280.97
2019-02-18T00:10:08.631Z,102280.16
2019-02-18T00:12:40.611Z,102281.78
2019-02-18T00:15:12.554Z,102286.84
2019-02-18T00:17:44.483Z,102286.94
2019-02-18T00:20:16.502Z,102288.04
2019-02-18T00:22:48.421Z,102282.95
2019-02-18T00:25:20.396Z,102282.62
2019-02-18T00:27:52.634Z,102285.09
2019-02-18T00:30:24.599Z,102280.34
2019-02-18T00:32:56.522Z,102275.25
2019-02-18T00:35:28.461Z,102272.91
2019-02-18T00:38:00.391Z,102275.34
2019-02-18T00:40:32.392Z,102276.31
2019-02-18T00:43:04.622Z,102267.08
2019-02-18T00:45:36.543Z,102268.70
2019-02-18T00:48:08.471Z,102271.08
2019-02-18T00:50:40.392Z,102264.50
2019-02-18T00:53:12.692Z,102259.02
2019-02-18T00:55:44.652Z,102262.88
2019-02-18T00:58:16.561Z,102260.98
2019-02-18T01:00:48.480Z,102267.80
2019-02-18T01:03:20.408Z,102263.59
2019-02-18T01:05:52.718Z,102260.98
2019-02-18T01:08:24.657Z,102254.52
2019-02-18T01:10:56.594Z,102254.28
2019-02-18T01:13:28.524Z,102254.58
2019-02-18T01:16:00.766Z,102248.90
2019-02-18T01:18:32.693Z,102245.58
2019-02-18T01:21:04.620Z,102242.12
2019-02-18T01:23:36.546Z,102239.90
2019-02-18T01:26:08.553Z,102238.72
2019-02-18T01:28:40.558Z,102238.03
2019-02-18T01:31:12.490Z,102235.65
2019-02-18T01:33:44.596Z,102232.29
2019-02-18T01:36:16.688Z,102231.67
2019-02-18T01:38:48.901Z,102228.84
2019-02-18T01:41:21.198Z,102225.08
2019-02-18T01:43:53.315Z,102217.10
2019-02-18T01:46:25.350Z,102219.80
2019-02-18T01:48:57.572Z,102208.66
2019-02-18T01:51:29.572Z,102212.06
2019-02-18T01:54:01.766Z,102213.00
2019-02-18T01:56:33.703Z,102213.35
2019-02-18T01:59:05.693Z,102212.60
2019-02-18T02:01:38.585Z,102208.00
2019-02-18T02:04:10.596Z,102205.30
2019-02-18T02:06:42.533Z,102204.67
2019-02-18T02:09:15.298Z,102198.12
2019-02-18T02:11:47.246Z,102195.44
2019-02-18T02:14:19.171Z,102197.94
2019-02-18T02:16:51.113Z,102194.77
2019-02-18T02:19:23.038Z,102199.97
2019-02-18T02:21:55.065Z,102192.27
2019-02-18T02:24:26.986Z,102186.30
2019-02-18T02:26:58.929Z,102189.10
2019-02-18T02:29:30.870Z,102186.86
2019-02-18T02:32:02.798Z,102182.33
2019-02-18T02:34:34.725Z,102189.06
2019-02-18T02:37:06.661Z,102180.79
2019-02-18T02:39:38.653Z,102177.89
2019-02-18T02:42:10.622Z,102176.78
2019-02-18T02:44:42.617Z,102175.57
2019-02-18T02:47:14.537Z,102173.25
2019-02-18T02:49:46.489Z,102173.47
2019-02-18T02:52:18.434Z,102173.14
2019-02-18T02:54:50.357Z,102171.91
2019-02-18T02:57:22.334Z,102174.59
2019-02-18T02:59:54.274Z,102171.25
2019-02-18T03:02:26.466Z,102173.92
2019-02-18T03:04:58.790Z,102169.72
2019-02-18T03:07:30.707Z,102168.89
2019-02-18T03:10:03.282Z,102168.32
2019-02-18T03:12:35.227Z,102164.24
2019-02-18T03:15:15.979Z,102166.67
2019-02-18T03:17:47.880Z,102164.30
2019-02-18T03:20:19.821Z,102160.84
2019-02-18T03:22:51.745Z,102161.72
2019-02-18T03:25:26.293Z,102158.08
2019-02-18T03:28:10.926Z,102162.88
2019-02-18T03:31:02.160Z,102158.77
2019-02-18T03:33:38.703Z,102158.03
2019-02-18T03:36:10.654Z,102159.49
2019-02-18T03:38:42.578Z,102155.75
2019-02-18T03:41:14.838Z,102151.86
2019-02-18T03:43:46.777Z,102150.72
2019-02-18T03:46:18.716Z,102150.67
2019-02-18T03:48:50.635Z,102147.94
2019-02-18T03:51:22.565Z,102151.27
2019-02-18T03:53:54.488Z,102142.52
2019-02-18T03:56:26.421Z,102139.95
2019-02-18T03:58:58.455Z,102143.02
2019-02-18T04:01:30.357Z,102144.61
2019-02-18T04:04:02.289Z,102142.91
2019-02-18T04:06:34.554Z,102148.48
2019-02-18T04:09:06.953Z,102146.08
2019-02-18T04:11:38.909Z,102145.31
2019-02-18T04:14:10.840Z,102143.67
2019-02-18T04:16:42.784Z,102141.36
2019-02-18T04:19:15.013Z,102145.02
2019-02-18T04:21:46.952Z,102140.42
2019-02-18T04:24:18.909Z,102138.73
2019-02-18T04:26:50.852Z,102141.66
2019-02-18T04:29:22.764Z,102141.58
2019-02-18T04:31:54.711Z,102145.17
2019-02-18T04:34:26.632Z,102148.91
2019-02-18T04:36:58.579Z,102146.69
2019-02-18T04:39:30.530Z,102133.03
2019-02-18T04:42:02.465Z,102140.00
2019-02-18T04:44:34.725Z,102139.26
2019-02-18T04:47:06.668Z,102139.48
2019-02-18T04:49:38.769Z,102137.05
2019-02-18T04:52:10.874Z,102139.33
2019-02-18T04:54:42.867Z,102140.81
2019-02-18T04:57:14.818Z,102137.20
2019-02-18T04:59:47.233Z,102134.09
2019-02-18T05:02:20.133Z,102134.11
2019-02-18T05:04:52.420Z,102134.74
2019-02-18T05:07:24.548Z,102133.30
2019-02-18T05:09:56.928Z,102124.63
2019-02-18T05:12:28.995Z,102124.95
2019-02-18T05:15:01.096Z,102133.38
2019-02-18T05:17:33.207Z,102130.92
2019-02-18T05:20:07.600Z,102128.19
2019-02-18T05:22:39.561Z,102126.05
2019-02-18T05:25:13.003Z,102122.95
2019-02-18T05:27:46.744Z,102123.81
2019-02-18T05:30:19.644Z,102121.37
2019-02-18T05:32:51.958Z,102120.84
2019-02-18T05:35:24.047Z,102114.39
2019-02-18T05:37:56.057Z,102115.11
2019-02-18T05:40:27.974Z,102115.30
2019-02-18T05:43:00.694Z,102113.25
2019-02-18T05:45:32.682Z,102118.45
2019-02-18T05:48:04.621Z,102114.83
2019-02-18T05:50:37.011Z,102115.50
2019-02-18T05:53:09.410Z,102113.74
2019-02-18T05:55:41.794Z,102112.33
2019-02-18T05:58:14.371Z,102114.70
2019-02-18T06:00:46.567Z,102116.54
2019-02-18T06:03:18.977Z,102109.65
2019-02-18T06:05:50.903Z,102116.63
2019-02-18T06:08:22.848Z,102122.00
2019-02-18T06:10:54.799Z,102122.41
2019-02-18T06:13:26.798Z,102124.35
2019-02-18T06:15:58.815Z,102128.68
2019-02-18T06:18:30.753Z,102125.43
2019-02-18T06:21:02.690Z,102134.17
2019-02-18T06:23:34.625Z,102136.89
2019-02-18T06:26:06.554Z,102129.81
2019-02-18T06:28:38.495Z,102134.41
2019-02-18T06:31:10.841Z,102131.55
2019-02-18T06:33:42.933Z,102132.75
2019-02-18T06:36:15.029Z,102138.32
2019-02-18T06:38:47.443Z,102140.59
2019-02-18T06:41:19.375Z,102137.71
2019-02-18T06:43:51.368Z,102140.14
2019-02-18T06:46:30.846Z,102146.98
2019-02-18T06:49:07.052Z,102154.91
2019-02-18T06:51:38.992Z,102150.66
2019-02-18T06:54:10.990Z,102152.70
2019-02-18T06:56:50.621Z,102152.58
2019-02-18T06:59:26.999Z,102149.61
2019-02-18T07:02:00.660Z,102144.73
2019-02-18T07:04:34.230Z,102143.27
2019-02-18T07:07:07.797Z,102145.80
2019-02-18T07:09:50.712Z,102146.48
2019-02-18T07:12:17.073Z,102150.11
2019-02-18T07:14:49.056Z,102149.66
2019-02-18T07:17:21.020Z,102148.34
2019-02-18T07:19:53.027Z,102145.48
2019-02-18T07:22:24.946Z,102148.20
2019-02-18T07:24:56.884Z,102136.22
2019-02-18T07:27:28.820Z,102138.95
2019-02-18T07:30:00.867Z,102140.66
2019-02-18T07:32:32.816Z,102140.53
2019-02-18T07:35:05.698Z,102139.08
2019-02-18T07:37:37.624Z,102143.86
2019-02-18T07:40:10.691Z,102143.42
2019-02-18T07:42:42.617Z,102151.27
2019-02-18T07:45:14.641Z,102149.46
2019-02-18T07:47:46.653Z,102144.53
2019-02-18T07:50:21.002Z,102142.83
2019-02-18T07:52:52.505Z,102150.33
2019-02-18T07:55:24.531Z,102153.63
2019-02-18T07:57:56.538Z,102151.25
2019-02-18T08:00:28.471Z,102150.97
2019-02-18T08:03:00.424Z,102145.75
2019-02-18T08:05:32.818Z,102148.37
2019-02-18T08:08:04.820Z,102144.67
2019-02-18T08:10:37.272Z,102146.05
2019-02-18T08:13:09.208Z,102141.63
2019-02-18T08:15:41.396Z,102141.36
2019-02-18T08:18:13.509Z,102143.00
2019-02-18T08:20:45.442Z,102141.13
2019-02-18T08:23:17.376Z,102139.03
2019-02-18T08:25:49.467Z,102137.75
2019-02-18T08:28:21.397Z,102140.36
2019-02-18T08:30:53.344Z,102134.87
2019-02-18T08:33:25.259Z,102126.46
2019-02-18T08:35:57.196Z,102130.54
2019-02-18T08:38:29.276Z,102128.59
2019-02-18T08:41:01.216Z,102128.48
2019-02-18T08:43:35.052Z,102126.14
2019-02-18T08:46:08.477Z,102132.49
2019-02-18T08:48:40.407Z,102139.63
2019-02-18T08:51:12.480Z,102143.38
2019-02-18T08:53:44.434Z,102074.33
2019-02-18T08:56:16.355Z,102143.56
2019-02-18T08:58:48.358Z,102141.00
2019-02-18T09:01:20.309Z,102140.70
2019-02-18T09:03:52.256Z,102141.20
2019-02-18T09:06:24.185Z,102136.26
2019-02-18T09:08:56.139Z,102139.78
2019-02-18T09:11:28.069Z,102138.48
2019-02-18T09:14:00.869Z,102136.79
2019-02-18T09:16:32.826Z,102140.67
2019-02-18T09:19:05.123Z,102140.54
2019-02-18T09:21:37.049Z,102142.82
2019-02-18T09:24:10.621Z,102139.95
2019-02-18T09:26:42.548Z,102138.91
2019-02-18T09:29:14.480Z,102139.19
2019-02-18T09:31:46.481Z,102134.48
2019-02-18T09:34:18.730Z,102133.20
2019-02-18T09:36:50.727Z,102128.84
2019-02-18T09:39:30.829Z,102127.85
2019-02-18T09:41:57.047Z,102133.05
2019-02-18T09:44:29.213Z,102136.62
2019-02-18T09:47:01.198Z,102137.16
2019-02-18T09:49:33.256Z,102134.60
2019-02-18T09:52:05.173Z,102141.44
2019-02-18T09:54:37.439Z,102137.05
2019-02-18T09:57:09.349Z,102136.08
2019-02-18T09:59:41.495Z,102136.59
2019-02-18T10:02:13.440Z,102137.72
2019-02-18T10:04:51.618Z,102136.11
2019-02-18T10:07:25.579Z,102135.24
2019-02-18T10:09:59.014Z,102127.29
2019-02-18T10:12:31.085Z,102123.90
2019-02-18T10:15:03.274Z,102127.23
2019-02-18T10:17:35.680Z,102125.59
2019-02-18T10:20:13.257Z,102120.95
2019-02-18T10:22:45.233Z,102125.76
2019-02-18T10:25:17.149Z,102121.45
2019-02-18T10:27:49.428Z,102119.03
2019-02-18T10:30:21.395Z,102120.66
2019-02-18T10:32:53.397Z,102117.17
2019-02-18T10:35:26.502Z,102118.94
2019-02-18T10:37:59.482Z,102117.58
2019-02-18T10:40:31.416Z,102118.81
2019-02-18T10:43:03.661Z,102113.18
2019-02-18T10:45:35.621Z,102104.83
2019-02-18T10:48:07.540Z,102103.40
2019-02-18T10:50:45.548Z,102096.22
2019-02-18T10:53:28.495Z,102096.55
2019-02-18T10:56:02.225Z,102083.12
2019-02-18T10:58:37.112Z,102087.73
2019-02-18T11:01:09.670Z,102079.22
2019-02-18T11:03:44.803Z,102072.14
2019-02-18T11:06:19.365Z,102081.30
2019-02-18T11:08:51.294Z,102088.42
2019-02-18T11:11:23.224Z,102078.88
2019-02-18T11:13:55.292Z,102074.45
2019-02-18T11:16:27.224Z,102070.64
2019-02-18T11:18:59.508Z,102075.47
2019-02-18T11:21:31.439Z,102080.91
2019-02-18T11:24:03.671Z,102075.66
2019-02-18T11:26:35.690Z,102070.25
2019-02-18T11:29:07.688Z,102057.87
2019-02-18T11:31:39.933Z,102052.20
2019-02-18T11:34:12.232Z,102046.64
2019-02-18T11:36:44.288Z,102042.00
2019-02-18T11:39:16.714Z,102042.88
2019-02-18T11:41:49.020Z,102039.80
2019-02-18T11:44:21.029Z,102039.57
2019-02-18T11:46:53.102Z,102031.20
2019-02-18T11:49:25.033Z,102035.88
2019-02-18T11:51:56.975Z,102034.88
2019-02-18T11:54:29.027Z,102028.11
2019-02-18T11:57:01.111Z,102030.78
2019-02-18T11:59:33.123Z,102027.94
2019-02-18T12:02:05.077Z,102022.08
2019-02-18T12:04:37.820Z,102024.66
2019-02-18T12:07:09.832Z,102023.13
2019-02-18T12:09:41.780Z,102016.98
2019-02-18T12:12:13.792Z,102015.45
2019-02-18T12:14:45.803Z,102012.04
2019-02-18T12:17:20.525Z,102006.72
2019-02-18T12:19:51.733Z,101999.44
2019-02-18T12:22:23.870Z,101996.77
2019-02-18T12:24:55.872Z,101989.63
2019-02-18T12:27:27.792Z,101990.64
2019-02-18T12:30:00.156Z,101975.24
2019-02-18T12:32:32.255Z,101978.66
2019-02-18T12:35:06.145Z,101973.33
2019-02-18T12:37:38.317Z,101971.98
2019-02-18T12:40:14.459Z,101968.69
2019-02-18T12:42:46.666Z,101963.84
2019-02-18T12:45:18.601Z,101956.92
2019-02-18T12:47:50.619Z,101953.57
2019-02-18T12:50:22.667Z,101943.20
2019-02-18T12:52:55.805Z,101937.41
2019-02-18T12:55:27.964Z,101936.70
2019-02-18T12:58:00.419Z,101937.20
2019-02-18T13:00:33.842Z,101931.03
2019-02-18T13:03:06.221Z,101934.05
2019-02-18T13:05:38.255Z,101927.06
2019-02-18T13:08:10.552Z,101922.70
2019-02-18T13:10:42.525Z,101923.41
2019-02-18T13:13:16.801Z,101920.47
2019-02-18T13:15:49.686Z,101919.76
2019-02-18T13:18:21.958Z,101915.51
2019-02-18T13:20:54.832Z,101908.13
2019-02-18T13:23:27.128Z,101903.80
2019-02-18T13:25:59.229Z,101895.93
2019-02-18T13:28:31.272Z,101894.95
2019-02-18T13:31:03.245Z,101892.96
2019-02-18T13:33:35.486Z,101894.33
2019-02-18T13:36:14.161Z,101885.81
2019-02-18T13:38:46.281Z,101886.36
2019-02-18T13:41:18.224Z,101884.47
2019-02-18T13:43:50.168Z,101886.06
2019-02-18T13:46:22.322Z,101876.72
2019-02-18T13:48:54.277Z,101883.22
2019-02-18T13:51:26.232Z,101880.27
2019-02-18T13:53:58.232Z,101885.25
2019-02-18T13:56:31.155Z,101875.41
2019-02-18T13:59:03.294Z,101872.75
2019-02-18T14:01:35.611Z,101873.25
2019-02-18T14:04:07.603Z,101875.54
2019-02-18T14:06:39.703Z,101870.02
2019-02-18T14:09:12.915Z,101869.86
2019-02-18T14:11:44.869Z,101866.91
2019-02-18T14:14:16.971Z,101868.00
2019-02-18T14:16:49.001Z,101865.92
2019-02-18T14:19:21.191Z,101861.12
2019-02-18T14:21:53.640Z,101859.53
2019-02-18T14:24:25.579Z,101858.98
2019-02-18T14:26:57.607Z,101864.56
2019-02-18T14:29:29.763Z,101862.87
2019-02-18T14:32:01.829Z,101862.38
2019-02-18T14:34:34.101Z,101859.86
2019-02-18T14:37:06.090Z,101857.08
2019-02-18T14:39:38.132Z,101856.47
2019-02-18T14:42:10.096Z,101853.13
2019-02-18T14:44:42.096Z,101849.94
2019-02-18T14:47:14.832Z,101854.52
2019-02-18T14:49:46.774Z,101852.39
2019-02-18T14:52:18.995Z,101850.63
2019-02-18T14:54:50.946Z,101845.81
2019-02-18T14:57:23.334Z,101849.97
2019-02-18T14:59:55.434Z,101845.38
2019-02-18T15:02:28.332Z,101842.91
2019-02-18T15:05:00.528Z,101837.78
2019-02-18T15:07:32.780Z,101830.94
2019-02-18T15:10:07.715Z,101833.56
2019-02-18T15:12:39.743Z,101826.52
2019-02-18T15:15:11.962Z,101826.95
2019-02-18T15:17:44.039Z,101819.12
2019-02-18T15:20:15.988Z,101818.95
2019-02-18T15:22:48.009Z,101823.27
2019-02-18T15:25:19.948Z,101826.14
2019-02-18T15:27:51.992Z,101822.37
2019-02-18T15:30:24.275Z,101817.99
2019-02-18T15:32:56.208Z,101815.90
2019-02-18T15:35:28.239Z,101819.78
2019-02-18T15:38:00.185Z,101812.67
2019-02-18T15:40:32.131Z,101812.50
2019-02-18T15:43:04.286Z,101803.80
2019-02-18T15:45:36.850Z,101802.48
2019-02-18T15:48:08.838Z,101801.98
2019-02-18T15:50:40.838Z,101800.56
2019-02-18T15:53:12.805Z,101799.79
2019-02-18T15:55:44.788Z,101796.23
2019-02-18T15:58:17.253Z,101792.95
2019-02-18T16:00:49.232Z,101792.17
2019-02-18T16:03:21.344Z,101784.68
2019-02-18T16:05:53.692Z,101784.95
2019-02-18T16:08:25.696Z,101780.03
2019-02-18T16:10:57.709Z,101781.36
2019-02-18T16:13:29.724Z,101774.19
2019-02-18T16:16:01.691Z,101775.75
2019-02-18T16:18:33.721Z,101773.75
2019-02-18T16:21:06.093Z,101775.49
2019-02-18T16:23:38.215Z,101776.96
2019-02-18T16:26:10.172Z,101774.27
2019-02-18T16:28:42.099Z,101774.41
2019-02-18T16:31:14.114Z,101771.40
2019-02-18T16:33:46.125Z,101777.63
2019-02-18T16:36:18.296Z,101780.28
2019-02-18T16:38:50.552Z,101781.39
2019-02-18T16:41:22.827Z,101776.67
2019-02-18T16:43:54.771Z,101783.72
2019-02-18T16:46:27.083Z,101785.58
2019-02-18T16:48:59.499Z,101780.14
2019-02-18T16:51:31.443Z,101784.67
2019-02-18T16:54:03.582Z,101782.27
2019-02-18T16:56:35.519Z,101786.48
2019-02-18T16:59:07.959Z,101783.60
2019-02-18T17:01:39.970Z,101785.27
2019-02-18T17:04:11.978Z,101785.70
2019-02-18T17:06:43.929Z,101780.82
2019-02-18T17:09:15.868Z,101782.89
2019-02-18T17:11:47.961Z,101784.28
2019-02-18T17:14:20.128Z,101779.79
2019-02-18T17:16:52.081Z,101780.28
2019-02-18T17:19:24.569Z,101778.14
2019-02-18T17:21:56.515Z,101776.55
2019-02-18T17:24:28.763Z,101780.62
2019-02-18T17:27:00.984Z,101776.27
2019-02-18T17:29:32.955Z,101781.56
2019-02-18T17:32:05.249Z,101774.39
2019-02-18T17:34:37.306Z,101771.59
2019-02-18T17:37:09.509Z,101768.84
2019-02-18T17:39:41.824Z,101765.27
2019-02-18T17:42:13.761Z,101756.55
2019-02-18T17:44:45.720Z,101762.88
2019-02-18T17:47:17.642Z,101757.11
2019-02-18T17:49:49.590Z,101756.22
2019-02-18T17:52:21.509Z,101756.53
2019-02-18T17:54:53.765Z,101752.29
2019-02-18T17:57:25.726Z,101751.47
2019-02-18T17:59:58.206Z,101746.29
2019-02-18T18:02:30.165Z,101746.93
2019-02-18T18:05:02.600Z,101746.55
2019-02-18T18:07:34.710Z,101741.87
2019-02-18T18:10:10.872Z,101738.80
2019-02-18T18:12:43.256Z,101742.98
2019-02-18T18:15:19.967Z,101736.15
2019-02-18T18:17:51.919Z,101736.05
2019-02-18T18:20:23.929Z,101728.24
2019-02-18T18:22:56.359Z,101728.77
2019-02-18T18:25:28.287Z,101720.09
2019-02-18T18:28:00.379Z,101716.71
2019-02-18T18:30:32.306Z,101713.56
2019-02-18T18:33:04.315Z,101707.03
2019-02-18T18:35:36.723Z,101705.81
2019-02-18T18:38:08.735Z,101696.39
2019-02-18T18:40:41.076Z,101696.76
2019-02-18T18:43:13.225Z,101700.35
2019-02-18T18:45:45.449Z,101692.44
2019-02-18T18:48:17.701Z,101695.05
2019-02-18T18:50:49.663Z,101689.20
2019-02-18T18:53:21.663Z,101692.08
2019-02-18T18:55:53.614Z,101684.02
2019-02-18T18:58:25.620Z,101680.48
2019-02-18T19:00:58.547Z,101681.14
2019-02-18T19:03:30.495Z,101679.55
2019-02-18T19:06:02.488Z,101675.58
2019-02-18T19:08:34.418Z,101671.93
2019-02-18T19:11:06.721Z,101674.21
2019-02-18T19:13:42.046Z,101679.31
2019-02-18T19:16:12.303Z,101674.19
2019-02-18T19:18:44.487Z,101676.47
2019-02-18T19:21:16.580Z,101672.25
2019-02-18T19:23:48.507Z,101671.65
2019-02-18T19:26:20.438Z,101664.86
2019-02-18T19:28:52.374Z,101667.75
2019-02-18T19:31:24.682Z,101669.95
2019-02-18T19:33:56.877Z,101666.58
2019-02-18T19:36:28.808Z,101670.72
2019-02-18T19:39:01.087Z,101659.22
2019-02-18T19:41:33.025Z,101667.27
2019-02-18T19:44:04.955Z,101662.08
2019-02-18T19:46:37.274Z,101660.06
2019-02-18T19:49:09.262Z,101651.36
2019-02-18T19:51:41.199Z,101647.88
2019-02-18T19:54:13.141Z,101649.42
2019-02-18T19:56:45.434Z,101643.16
2019-02-18T19:59:17.459Z,101643.08
2019-02-18T20:01:49.687Z,101641.52
2019-02-18T20:04:21.630Z,101643.09
2019-02-18T20:06:54.476Z,101641.01
2019-02-18T20:09:26.860Z,101639.47
2019-02-18T20:11:58.802Z,101641.53
2019-02-18T20:14:30.840Z,101634.44
2019-02-18T20:17:02.906Z,101629.94
2019-02-18T20:19:36.501Z,101627.31
2019-02-18T20:22:08.790Z,101627.91
2019-02-18T20:24:40.735Z,101622.99
2019-02-18T20:27:12.749Z,101618.19
2019-02-18T20:29:44.688Z,101619.38
2019-02-18T20:32:16.683Z,101619.52
2019-02-18T20:34:48.676Z,101619.44
2019-02-18T20:37:20.694Z,101617.14
2019-02-18T20:39:52.616Z,101617.08
2019-02-18T20:42:24.707Z,101612.34
2019-02-18T20:44:57.042Z,101605.86
2019-02-18T20:47:29.010Z,101606.45
2019-02-18T20:50:00.941Z,101614.50
2019-02-18T20:52:32.896Z,101609.65
2019-02-18T20:55:06.197Z,101612.47
2019-02-18T20:57:38.387Z,101610.61
2019-02-18T21:00:17.905Z,101614.04
2019-02-18T21:02:51.215Z,101608.64
2019-02-18T21:05:23.511Z,101611.30
2019-02-18T21:07:56.795Z,101604.81
2019-02-18T21:10:29.363Z,101608.28
2019-02-18T21:13:01.369Z,101602.28
2019-02-18T21:15:33.313Z,101602.72
2019-02-18T21:18:05.339Z,101603.26
2019-02-18T21:20:37.562Z,101600.63
2019-02-18T21:23:09.479Z,101602.47
2019-02-18T21:25:41.438Z,101601.53
2019-02-18T21:28:13.359Z,101601.13
2019-02-18T21:30:45.349Z,101595.52
2019-02-18T21:33:17.426Z,101591.28
2019-02-18T21:35:49.446Z,101585.13
2019-02-18T21:38:21.478Z,101588.31
2019-02-18T21:40:53.554Z,101587.38
2019-02-18T21:43:25.867Z,101580.06
2019-02-18T21:45:57.937Z,101581.09
2019-02-18T21:48:30.022Z,101575.70
2019-02-18T21:51:02.413Z,101570.79
2019-02-18T21:53:34.324Z,101571.42
2019-02-18T21:56:07.437Z,101567.29
2019-02-18T21:58:39.388Z,101562.83
2019-02-18T22:01:11.336Z,101562.61
2019-02-18T22:03:43.335Z,101569.63
2019-02-18T22:06:15.337Z,101562.73
2019-02-18T22:08:47.724Z,101561.09
2019-02-18T22:11:19.742Z,101559.95
2019-02-18T22:13:51.668Z,101562.45
2019-02-18T22:16:23.630Z,101559.06
2019-02-18T22:18:55.637Z,101554.91
2019-02-18T22:21:28.019Z,101554.06
2019-02-18T22:24:00.016Z,101554.63
2019-02-18T22:26:31.956Z,101544.58
2019-02-18T22:29:03.878Z,101547.27
2019-02-18T22:31:35.883Z,101549.75
2019-02-18T22:34:08.657Z,101545.23
2019-02-18T22:36:40.969Z,101537.83
2019-02-18T22:39:12.910Z,101538.64
2019-02-18T22:41:44.835Z,101538.96
2019-02-18T22:44:16.865Z,101541.30
2019-02-18T22:46:49.376Z,101531.96
2019-02-18T22:49:21.328Z,101529.63
2019-02-18T22:51:53.309Z,101524.31
2019-02-18T22:54:25.320Z,101516.41
2019-02-18T22:56:57.364Z,101521.13
2019-02-18T22:59:29.725Z,101517.12
2019-02-18T23:02:01.774Z,101513.91
2019-02-18T23:04:33.775Z,101506.85
2019-02-18T23:07:05.804Z,101510.62
2019-02-18T23:09:37.728Z,101504.69
2019-02-18T23:12:10.197Z,101502.90
2019-02-18T23:14:50.121Z,101504.00
2019-02-18T23:17:15.813Z,101494.48
2019-02-18T23:19:47.864Z,101489.82
2019-02-18T23:22:19.804Z,101492.22
2019-02-18T23:24:52.299Z,101491.02
2019-02-18T23:27:24.882Z,101488.34
2019-02-18T23:29:56.810Z,101479.12
2019-02-18T23:32:29.138Z,101478.94
2019-02-18T23:35:01.060Z,101475.64
2019-02-18T23:37:33.495Z,101473.36
2019-02-18T23:40:06.518Z,101475.00
2019-02-18T23:42:38.518Z,101473.43
2019-02-18T23:45:10.741Z,101471.24
2019-02-18T23:47:42.740Z,101471.08
2019-02-18T23:50:14.681Z,101476.41
2019-02-18T23:52:46.635Z,101470.59
2019-02-18T23:55:18.653Z,101467.27
2019-02-18T23:57:50.699Z,101457.73
